Time;durP1;ratioP1;P1;durP2;ratioP2;P2;SDS_P1;SDS_P2;PMS_P1;PMS_P2;Temp;Humidity;BMP_temperature;BMP_pressure;BME280_temperature;BME280_humidity;BME280_pressure;Samples;Min_cycle;Max_cycle;Signal;HPM_P1;HPM_P2
2021/03/26 00:00:42;;;;;;;10.50;7.70;;;16.80;54.40;;;;;;5054926;28;20492;-59
2021/03/26 00:03:11;;;;;;;14.07;8.50;;;16.80;54.50;;;;;;5080448;28;20440;-59
2021/03/26 00:05:40;;;;;;;12.97;7.70;;;16.80;54.50;;;;;;5094730;28;20436;-58
2021/03/26 00:08:06;;;;;;;12.93;8.50;;;16.70;54.50;;;;;;5094775;28;20436;-59
2021/03/26 00:10:34;;;;;;;12.60;7.70;;;16.70;54.40;;;;;;5093171;28;20535;-58
2021/03/26 00:13:08;;;;;;;14.50;8.50;;;16.70;54.40;;;;;;5065362;28;20442;-58
2021/03/26 00:15:35;;;;;;;12.93;8.23;;;16.60;54.60;;;;;;5073384;28;20469;-59
2021/03/26 00:18:02;;;;;;;16.57;8.17;;;16.60;54.50;;;;;;5074472;28;20533;-58
2021/03/26 00:20:29;;;;;;;12.70;8.17;;;16.60;54.60;;;;;;5074183;28;20442;-58
2021/03/26 00:22:58;;;;;;;15.13;8.53;;;16.60;54.50;;;;;;5074905;28;20437;-59
2021/03/26 00:25:25;;;;;;;13.90;8.80;;;16.60;54.50;;;;;;5074481;28;20544;-59
2021/03/26 00:27:52;;;;;;;13.23;7.90;;;16.60;54.40;;;;;;5074502;28;20433;-59
2021/03/26 00:30:20;;;;;;;16.37;8.87;;;16.60;54.50;;;;;;5057098;28;20545;-59
2021/03/26 00:32:47;;;;;;;11.00;8.17;;;16.50;54.40;;;;;;5054304;28;20522;-59
2021/03/26 00:35:48;;;;;;;13.53;8.93;;;16.50;54.50;;;;;;5053748;28;20487;-59
2021/03/26 00:38:16;;;;;;;11.80;8.00;;;16.50;54.60;;;;;;5065237;28;20465;-58
2021/03/26 00:40:43;;;;;;;11.77;8.27;;;16.50;54.60;;;;;;5074375;28;20479;-59
2021/03/26 00:43:10;;;;;;;12.83;7.80;;;16.40;54.80;;;;;;5074215;28;20480;-59
2021/03/26 00:45:38;;;;;;;11.33;7.77;;;16.40;54.70;;;;;;5073719;28;20469;-59
2021/03/26 00:48:05;;;;;;;13.00;8.00;;;16.40;54.80;;;;;;5074076;28;20449;-59
2021/03/26 00:50:34;;;;;;;12.07;7.90;;;16.40;54.80;;;;;;5073419;28;20473;-59
2021/03/26 00:53:02;;;;;;;11.30;8.20;;;16.30;54.80;;;;;;5074589;28;20418;-59
2021/03/26 00:55:30;;;;;;;12.60;8.60;;;16.30;54.80;;;;;;5073564;28;20561;-58
2021/03/26 00:57:57;;;;;;;13.90;8.87;;;16.30;54.90;;;;;;5074339;28;20442;-59
2021/03/26 01:00:25;;;;;;;14.40;7.67;;;16.20;54.90;;;;;;5074197;28;20511;-60
2021/03/26 01:02:53;;;;;;;12.87;8.57;;;16.20;55.50;;;;;;5074186;28;20446;-60
2021/03/26 01:05:24;;;;;;;15.27;8.43;;;16.20;55.00;;;;;;5073448;28;20429;-59
2021/03/26 01:07:50;;;;;;;14.90;8.30;;;16.20;55.00;;;;;;5073882;28;20473;-59
2021/03/26 01:10:19;;;;;;;11.23;7.10;;;16.20;55.00;;;;;;5074516;28;20544;-58
2021/03/26 01:12:47;;;;;;;12.50;8.27;;;16.20;55.20;;;;;;5076889;28;20463;-58
2021/03/26 01:15:14;;;;;;;13.20;8.33;;;16.20;55.00;;;;;;5093919;28;20437;-58
2021/03/26 01:17:41;;;;;;;11.87;7.77;;;16.30;54.80;;;;;;5094232;28;20463;-59
2021/03/26 01:20:10;;;;;;;10.80;7.63;;;16.30;54.80;;;;;;5094263;28;20459;-58
2021/03/26 01:22:37;;;;;;;10.93;7.63;;;16.30;54.70;;;;;;5082646;28;20456;-58
2021/03/26 01:25:08;;;;;;;12.33;7.63;;;16.30;54.70;;;;;;5073824;28;20495;-58
2021/03/26 01:27:51;;;;;;;10.70;7.50;;;16.30;54.70;;;;;;5073993;28;20473;-59
2021/03/26 01:30:19;;;;;;;13.30;8.00;;;16.30;54.80;;;;;;5073608;28;20481;-58
2021/03/26 01:32:47;;;;;;;15.93;8.50;;;16.30;54.80;;;;;;5073904;28;20444;-59
2021/03/26 01:35:14;;;;;;;10.93;7.73;;;16.30;54.80;;;;;;5073325;28;20438;-58
2021/03/26 01:37:41;;;;;;;12.87;8.33;;;16.30;54.80;;;;;;5073960;28;20433;-56
2021/03/26 01:40:11;;;;;;;12.90;8.07;;;16.20;54.80;;;;;;5073749;28;20502;-58
2021/03/26 01:42:39;;;;;;;11.40;7.50;;;16.30;54.80;;;;;;5073970;28;20433;-58
2021/03/26 01:45:08;;;;;;;15.03;9.03;;;16.20;54.70;;;;;;5073150;28;20488;-58
2021/03/26 01:47:35;;;;;;;11.33;7.80;;;16.20;54.90;;;;;;5073819;28;20446;-57
2021/03/26 01:50:04;;;;;;;12.60;7.80;;;16.10;55.00;;;;;;5091852;28;20443;-59
2021/03/26 01:52:31;;;;;;;14.30;7.63;;;16.10;55.10;;;;;;5094170;28;20425;-58
2021/03/26 01:54:58;;;;;;;12.77;7.70;;;16.10;55.00;;;;;;5096531;28;20432;-58
2021/03/26 01:57:25;;;;;;;11.60;7.70;;;16.10;55.10;;;;;;5097332;28;20472;-58
2021/03/26 01:59:54;;;;;;;12.83;8.10;;;16.00;55.20;;;;;;5097054;28;20432;-58
2021/03/26 02:02:24;;;;;;;12.30;8.10;;;16.10;55.20;;;;;;5097408;28;20437;-58
2021/03/26 02:04:51;;;;;;;11.57;8.03;;;16.10;55.30;;;;;;5096391;28;20459;-61
2021/03/26 02:07:18;;;;;;;11.00;7.87;;;16.10;55.10;;;;;;5095526;28;20534;-58
2021/03/26 02:09:45;;;;;;;13.30;8.23;;;16.10;55.10;;;;;;5097043;28;20527;-59
2021/03/26 02:12:18;;;;;;;12.93;8.50;;;16.10;55.00;;;;;;5096813;28;20447;-58
2021/03/26 02:14:46;;;;;;;13.53;8.40;;;16.00;55.20;;;;;;5089969;28;20435;-58
2021/03/26 02:17:15;;;;;;;11.43;7.70;;;16.00;55.30;;;;;;5056445;28;20478;-58
2021/03/26 02:19:45;;;;;;;15.40;8.30;;;15.90;55.30;;;;;;5056593;28;20474;-58
2021/03/26 02:22:13;;;;;;;11.50;8.03;;;16.00;55.40;;;;;;5060317;28;20472;-60
2021/03/26 02:24:41;;;;;;;10.20;7.50;;;16.00;55.50;;;;;;5056353;28;20439;-60
2021/03/26 02:27:14;;;;;;;15.50;7.80;;;16.00;55.60;;;;;;5056797;28;20453;-60
2021/03/26 02:29:41;;;;;;;11.20;7.40;;;15.90;55.50;;;;;;5056579;28;20518;-60
2021/03/26 02:32:11;;;;;;;11.60;7.63;;;16.00;55.60;;;;;;5060102;28;20426;-59
2021/03/26 02:34:38;;;;;;;12.40;7.80;;;16.00;55.60;;;;;;5095918;28;20468;-60
2021/03/26 02:37:06;;;;;;;12.30;8.33;;;15.90;55.60;;;;;;5096099;28;20477;-59
2021/03/26 02:39:38;;;;;;;15.97;8.50;;;16.00;55.50;;;;;;5096786;28;20441;-60
2021/03/26 02:42:22;;;;;;;16.73;8.80;;;15.80;55.40;;;;;;5022395;28;20460;-59
2021/03/26 02:44:53;;;;;;;11.17;7.67;;;15.90;55.30;;;;;;5014056;28;20436;-60
2021/03/26 02:47:26;;;;;;;11.70;8.37;;;15.90;55.50;;;;;;5015109;28;20433;-60
2021/03/26 02:49:54;;;;;;;11.70;7.67;;;15.90;55.50;;;;;;5015809;28;20459;-59
2021/03/26 02:52:27;;;;;;;12.73;8.63;;;15.90;55.60;;;;;;5034609;28;20466;-59
2021/03/26 02:54:56;;;;;;;12.37;8.00;;;15.80;55.60;;;;;;5034171;28;20506;-60
2021/03/26 02:57:28;;;;;;;12.00;8.37;;;15.80;55.50;;;;;;5034366;28;20517;-60
2021/03/26 02:59:58;;;;;;;11.90;8.50;;;15.80;55.50;;;;;;5033979;28;20442;-60
2021/03/26 03:02:28;;;;;;;12.43;7.93;;;15.80;55.50;;;;;;5034393;28;20498;-60
2021/03/26 03:04:58;;;;;;;11.70;7.70;;;15.80;55.50;;;;;;5031754;28;20451;-60
2021/03/26 03:07:26;;;;;;;10.70;7.50;;;15.80;55.80;;;;;;5084108;28;20436;-60
2021/03/26 03:09:56;;;;;;;12.20;8.73;;;15.70;55.80;;;;;;5055748;28;20533;-59
2021/03/26 03:12:26;;;;;;;14.27;8.53;;;15.70;55.90;;;;;;5055975;28;20441;-59
2021/03/26 03:14:56;;;;;;;11.63;7.90;;;15.80;55.80;;;;;;5055514;28;20442;-60
2021/03/26 03:17:25;;;;;;;12.50;7.80;;;15.70;55.70;;;;;;5064558;28;20481;-59
2021/03/26 03:19:55;;;;;;;12.40;7.67;;;15.70;55.80;;;;;;5075939;28;20442;-59
2021/03/26 03:22:27;;;;;;;11.47;8.00;;;15.60;55.90;;;;;;5075773;28;20539;-60
2021/03/26 03:24:54;;;;;;;13.67;8.43;;;15.60;55.90;;;;;;5074632;28;20495;-59
2021/03/26 03:27:40;;;;;;;10.00;7.33;;;15.60;56.00;;;;;;5093065;28;20437;-59
2021/03/26 03:30:19;;;;;;;11.67;7.80;;;15.60;56.00;;;;;;5093236;28;20449;-60
2021/03/26 03:32:51;;;;;;;10.33;7.40;;;15.70;56.00;;;;;;5094991;28;20467;-59
2021/03/26 03:35:22;;;;;;;12.13;8.47;;;15.60;56.10;;;;;;5094113;28;20465;-59
2021/03/26 03:37:57;;;;;;;12.20;8.30;;;15.60;56.00;;;;;;5082551;28;20426;-59
2021/03/26 03:40:31;;;;;;;14.07;8.90;;;15.60;55.90;;;;;;5074599;28;20433;-59
2021/03/26 03:43:01;;;;;;;12.00;9.00;;;15.60;56.00;;;;;;5075640;28;20444;-60
2021/03/26 03:45:40;;;;;;;13.73;8.97;;;15.50;55.90;;;;;;5094372;28;20433;-60
2021/03/26 03:48:10;;;;;;;16.07;9.23;;;15.50;56.00;;;;;;5095112;28;20505;-60
2021/03/26 03:50:39;;;;;;;15.33;9.03;;;15.60;55.80;;;;;;5095521;28;20425;-59
2021/03/26 03:53:09;;;;;;;14.67;9.40;;;15.40;56.00;;;;;;5083715;28;20452;-59
2021/03/26 03:55:37;;;;;;;15.07;9.27;;;15.50;56.00;;;;;;5074288;28;20480;-60
2021/03/26 03:58:06;;;;;;;12.70;8.87;;;15.40;56.00;;;;;;5075150;28;20437;-59
2021/03/26 04:00:34;;;;;;;13.77;9.60;;;15.50;55.90;;;;;;5074770;28;20499;-60
2021/03/26 04:03:08;;;;;;;15.67;9.97;;;15.40;55.70;;;;;;5054168;28;20526;-60
2021/03/26 04:05:40;;;;;;;15.30;10.47;;;15.40;55.70;;;;;;5053832;28;20417;-59
2021/03/26 04:08:08;;;;;;;16.00;10.20;;;15.50;55.70;;;;;;5054209;28;20443;-59
2021/03/26 04:10:45;;;;;;;15.70;9.93;;;15.40;55.80;;;;;;5074590;28;20436;-60
2021/03/26 04:13:15;;;;;;;15.53;10.00;;;15.50;55.60;;;;;;5094992;28;20417;-59
2021/03/26 04:15:45;;;;;;;15.50;10.47;;;15.50;55.50;;;;;;5089550;28;20438;-60
2021/03/26 04:18:15;;;;;;;18.03;9.90;;;15.50;55.50;;;;;;5074958;28;20445;-60
2021/03/26 04:20:44;;;;;;;17.47;10.30;;;15.40;55.60;;;;;;5055182;28;20441;-59
2021/03/26 04:23:13;;;;;;;17.27;10.93;;;15.40;56.10;;;;;;5054831;28;20458;-59
2021/03/26 04:25:42;;;;;;;18.90;11.73;;;15.20;55.70;;;;;;5059050;28;20440;-59
2021/03/26 04:28:11;;;;;;;18.00;11.17;;;15.20;55.80;;;;;;5082583;28;20433;-60
2021/03/26 04:30:41;;;;;;;18.47;11.57;;;15.20;55.70;;;;;;5089555;28;20433;-60
2021/03/26 04:33:10;;;;;;;18.47;12.13;;;15.30;55.50;;;;;;5074960;28;20449;-60
2021/03/26 04:35:39;;;;;;;17.90;11.30;;;15.30;55.60;;;;;;5073833;28;20453;-60
2021/03/26 04:38:08;;;;;;;16.20;11.67;;;15.20;55.80;;;;;;5074554;28;20495;-60
2021/03/26 04:40:36;;;;;;;19.30;11.60;;;15.30;55.50;;;;;;5074257;28;20438;-62
2021/03/26 04:43:09;;;;;;;21.57;12.70;;;15.20;55.50;;;;;;5074572;28;20514;-60
2021/03/26 04:45:42;;;;;;;23.23;11.90;;;15.20;55.80;;;;;;5067173;28;20438;-60
2021/03/26 04:48:11;;;;;;;20.47;12.00;;;15.20;55.60;;;;;;5054353;28;20453;-60
2021/03/26 04:50:41;;;;;;;16.87;11.87;;;15.10;55.50;;;;;;5058936;28;20456;-60
2021/03/26 04:53:11;;;;;;;17.83;12.13;;;15.20;55.40;;;;;;5074670;28;20521;-60
2021/03/26 04:55:40;;;;;;;19.07;12.37;;;15.10;55.50;;;;;;5085642;28;20422;-60
2021/03/26 04:58:17;;;;;;;20.43;13.40;;;15.10;55.50;;;;;;5074437;28;20529;-60
2021/03/26 05:00:46;;;;;;;24.00;13.30;;;15.00;55.40;;;;;;5074182;28;20507;-60
2021/03/26 05:03:17;;;;;;;23.70;14.10;;;15.00;55.70;;;;;;5079631;28;20491;-60
2021/03/26 05:05:47;;;;;;;22.30;14.20;;;15.00;55.50;;;;;;5093975;28;20813;-60
2021/03/26 05:08:14;;;;;;;24.63;15.30;;;14.90;55.50;;;;;;5094263;28;20516;-60
2021/03/26 05:10:42;;;;;;;22.80;14.77;;;15.10;55.30;;;;;;5089083;28;20526;-59
2021/03/26 05:13:11;;;;;;;23.90;14.57;;;15.10;55.40;;;;;;5074023;28;20442;-60
2021/03/26 05:15:40;;;;;;;25.00;14.63;;;15.00;55.40;;;;;;5073528;28;20535;-60
2021/03/26 05:18:09;;;;;;;22.23;13.50;;;15.00;55.20;;;;;;5073544;28;20502;-60
2021/03/26 05:20:40;;;;;;;22.50;13.80;;;15.10;55.40;;;;;;5070558;28;20437;-54
2021/03/26 05:23:11;;;;;;;22.33;13.50;;;15.00;56.40;;;;;;5053973;28;20438;-53
2021/03/26 05:25:40;;;;;;;24.67;14.00;;;15.00;56.40;;;;;;5056708;28;20530;-55
2021/03/26 05:28:07;;;;;;;23.40;13.93;;;15.10;56.00;;;;;;5072464;28;20491;-55
2021/03/26 05:30:38;;;;;;;26.97;15.23;;;15.10;56.00;;;;;;5075325;28;20548;-56
2021/03/26 05:33:15;;;;;;;21.60;13.93;;;15.10;55.70;;;;;;5077003;28;20444;-55
2021/03/26 05:35:46;;;;;;;20.20;13.63;;;15.20;55.60;;;;;;5072753;28;20453;-54
2021/03/26 05:38:15;;;;;;;29.20;15.33;;;15.20;55.50;;;;;;5078392;28;20437;-53
2021/03/26 05:41:07;;;;;;;22.50;14.93;;;15.20;55.40;;;;;;5073686;28;20460;-55
2021/03/26 05:43:55;;;;;;;23.60;15.00;;;15.20;55.40;;;;;;5075586;28;20525;-54
2021/03/26 05:46:28;;;;;;;23.20;15.43;;;15.30;55.20;;;;;;5073790;28;20490;-56
2021/03/26 05:48:57;;;;;;;24.47;15.20;;;15.40;55.60;;;;;;5076650;28;20453;-54
2021/03/26 05:51:41;;;;;;;26.60;16.00;;;15.40;55.00;;;;;;5075818;28;20442;-55
2021/03/26 05:54:17;;;;;;;24.50;16.00;;;15.20;55.00;;;;;;5075591;28;20533;-53
2021/03/26 05:56:51;;;;;;;26.40;16.33;;;15.20;55.10;;;;;;5075713;28;20500;-56
2021/03/26 05:59:24;;;;;;;24.23;14.50;;;15.20;55.00;;;;;;5073239;28;20448;-55
2021/03/26 06:02:21;;;;;;;26.23;15.90;;;15.20;55.20;;;;;;5076049;28;20461;-55
2021/03/26 06:05:03;;;;;;;25.73;15.93;;;15.20;55.10;;;;;;5068448;28;20439;-53
2021/03/26 06:07:42;;;;;;;24.33;15.50;;;15.30;55.00;;;;;;5074799;28;20448;-56
2021/03/26 06:10:27;;;;;;;23.07;15.13;;;15.20;55.00;;;;;;5074576;28;20528;-54
2021/03/26 06:13:11;;;;;;;24.40;15.10;;;15.50;54.80;;;;;;5076399;28;20450;-55
2021/03/26 06:16:12;;;;;;;25.93;15.60;;;15.40;54.80;;;;;;5094749;28;20473;-52
2021/03/26 06:18:48;;;;;;;26.37;16.07;;;15.40;54.90;;;;;;5096123;28;20506;-55
2021/03/26 06:21:23;;;;;;;24.47;15.30;;;15.40;54.70;;;;;;5096067;28;20456;-53
2021/03/26 06:24:06;;;;;;;23.00;14.50;;;15.50;54.70;;;;;;5095930;28;20436;-54
2021/03/26 06:26:40;;;;;;;23.73;15.57;;;15.60;54.60;;;;;;5096216;28;20432;-56
2021/03/26 06:29:15;;;;;;;27.93;16.20;;;15.60;54.50;;;;;;5096348;28;20515;-56
2021/03/26 06:32:21;;;;;;;22.80;13.70;;;15.50;54.60;;;;;;5095780;28;20433;-55
2021/03/26 06:35:01;;;;;;;24.83;13.83;;;15.70;54.60;;;;;;5095554;28;20461;-55
2021/03/26 06:37:37;;;;;;;23.10;14.73;;;15.60;54.50;;;;;;5095793;28;20563;-56
2021/03/26 06:40:30;;;;;;;26.10;15.53;;;15.70;54.50;;;;;;5092859;28;20501;-53
2021/03/26 06:43:02;;;;;;;21.73;14.23;;;15.90;54.20;;;;;;5055542;28;20431;-56
2021/03/26 06:45:51;;;;;;;21.37;15.33;;;16.00;53.80;;;;;;5055077;28;20469;-55
2021/03/26 06:48:23;;;;;;;21.97;14.87;;;16.10;53.80;;;;;;5055492;28;20442;-55
2021/03/26 06:51:01;;;;;;;23.57;14.50;;;16.10;53.50;;;;;;5056328;28;20426;-55
2021/03/26 06:53:33;;;;;;;22.20;15.17;;;16.20;53.70;;;;;;5055415;28;20462;-55
2021/03/26 06:56:37;;;;;;;24.00;15.10;;;16.30;53.50;;;;;;5054733;28;20521;-56
2021/03/26 06:59:30;;;;;;;19.17;13.80;;;16.30;53.60;;;;;;5080218;28;20466;-52
2021/03/26 07:02:07;;;;;;;22.70;14.47;;;16.30;53.60;;;;;;5095397;28;20433;-54
2021/03/26 07:04:49;;;;;;;23.33;15.00;;;16.30;53.50;;;;;;5094760;28;20441;-50
2021/03/26 07:07:53;;;;;;;19.70;14.13;;;16.50;53.40;;;;;;5081643;28;20478;-50
2021/03/26 07:10:36;;;;;;;20.27;13.60;;;16.60;53.20;;;;;;5051431;28;20466;-51
2021/03/26 07:13:20;;;;;;;19.17;12.90;;;16.80;52.90;;;;;;5054997;28;20481;-48
2021/03/26 07:15:51;;;;;;;20.07;13.80;;;16.70;53.00;;;;;;5054971;28;20538;-55
2021/03/26 07:18:24;;;;;;;22.00;13.07;;;16.70;53.30;;;;;;5054976;28;20538;-55
2021/03/26 07:21:11;;;;;;;21.13;12.90;;;16.60;53.30;;;;;;5055154;28;20453;-56
2021/03/26 07:24:16;;;;;;;17.83;12.80;;;16.60;53.50;;;;;;5054733;28;20442;-54
2021/03/26 07:26:49;;;;;;;20.13;13.63;;;16.70;53.40;;;;;;5041469;28;20441;-56
2021/03/26 07:29:29;;;;;;;23.70;12.37;;;16.70;53.20;;;;;;5059200;28;20426;-53
2021/03/26 07:32:30;;;;;;;18.20;12.60;;;16.90;53.00;;;;;;5074496;28;20489;-51
2021/03/26 07:35:13;;;;;;;17.93;11.60;;;16.80;52.80;;;;;;5057434;28;20442;-55
2021/03/26 07:37:46;;;;;;;20.20;11.87;;;17.00;52.70;;;;;;5054271;28;20489;-55
2021/03/26 07:40:32;;;;;;;14.80;11.50;;;17.20;52.40;;;;;;5054749;28;20466;-56
2021/03/26 07:43:06;;;;;;;18.73;12.60;;;17.30;52.30;;;;;;5055133;28;20477;-52
2021/03/26 07:45:40;;;;;;;19.43;12.87;;;17.30;52.20;;;;;;5054058;28;20488;-52
2021/03/26 07:48:17;;;;;;;17.93;12.70;;;17.20;52.40;;;;;;5054277;28;20442;-54
2021/03/26 07:50:51;;;;;;;16.00;11.57;;;17.30;52.50;;;;;;5054417;28;20439;-56
2021/03/26 07:53:50;;;;;;;15.50;11.20;;;17.30;52.30;;;;;;5054170;28;20470;-55
2021/03/26 07:56:51;;;;;;;13.27;10.60;;;17.30;52.50;;;;;;5053513;28;20522;-55
2021/03/26 07:59:34;;;;;;;18.90;11.57;;;17.30;52.60;;;;;;5054017;28;20460;-56
2021/03/26 08:02:18;;;;;;;15.60;11.70;;;17.40;52.20;;;;;;5053842;28;20430;-55
2021/03/26 08:05:04;;;;;;;16.93;10.70;;;17.40;52.20;;;;;;5053059;28;20438;-56
2021/03/26 08:07:58;;;;;;;16.93;11.10;;;17.30;52.40;;;;;;5066101;28;20529;-56
2021/03/26 08:10:30;;;;;;;15.27;10.33;;;17.30;52.50;;;;;;5056765;28;20473;-54
2021/03/26 08:13:05;;;;;;;15.57;9.77;;;17.30;52.50;;;;;;5053958;28;20439;-55
2021/03/26 08:15:39;;;;;;;15.57;10.47;;;17.40;52.40;;;;;;5072978;28;20490;-54
2021/03/26 08:18:17;;;;;;;14.57;10.17;;;17.30;52.30;;;;;;5064409;28;20545;-55
2021/03/26 08:20:56;;;;;;;13.07;9.30;;;17.30;53.20;;;;;;5055660;28;20489;-55
2021/03/26 08:23:30;;;;;;;15.50;10.30;;;17.50;53.30;;;;;;5069400;28;20457;-53
2021/03/26 08:26:02;;;;;;;15.57;8.70;;;17.40;53.40;;;;;;5071220;28;20453;-54
2021/03/26 08:28:44;;;;;;;11.13;9.07;;;17.40;53.40;;;;;;5076682;28;20520;-56
2021/03/26 08:31:20;;;;;;;17.17;9.00;;;17.40;53.40;;;;;;5071062;28;20434;-55
2021/03/26 08:33:59;;;;;;;18.90;9.53;;;17.50;53.40;;;;;;5073663;28;20418;-53
2021/03/26 08:36:37;;;;;;;11.00;8.30;;;17.40;53.40;;;;;;5070351;28;20496;-52
2021/03/26 08:39:33;;;;;;;12.30;8.40;;;17.40;53.50;;;;;;5073876;28;20525;-59
2021/03/26 08:42:06;;;;;;;13.70;9.30;;;17.40;53.60;;;;;;5064594;28;20495;-60
2021/03/26 08:44:33;;;;;;;15.67;9.63;;;17.50;53.30;;;;;;5077091;28;20514;-60
2021/03/26 08:47:00;;;;;;;13.77;8.60;;;17.50;53.30;;;;;;5094406;28;20508;-60
2021/03/26 08:49:37;;;;;;;14.87;9.07;;;17.30;53.50;;;;;;5074716;28;20477;-60
2021/03/26 08:52:25;;;;;;;12.53;8.60;;;17.30;53.70;;;;;;5074126;28;20429;-60
2021/03/26 08:55:03;;;;;;;11.17;8.00;;;17.30;53.50;;;;;;5057898;28;20475;-60
2021/03/26 08:57:32;;;;;;;10.70;8.77;;;17.40;53.70;;;;;;5074064;28;20501;-60
2021/03/26 09:00:17;;;;;;;10.50;8.03;;;17.40;53.80;;;;;;5074115;28;20476;-60
2021/03/26 09:03:01;;;;;;;10.10;7.93;;;17.50;53.80;;;;;;5074500;28;20444;-60
2021/03/26 09:06:11;;;;;;;11.20;7.50;;;17.40;53.70;;;;;;5069770;28;20419;-60
2021/03/26 09:08:55;;;;;;;13.63;8.60;;;17.40;53.80;;;;;;5068473;28;20453;-60
2021/03/26 09:11:30;;;;;;;14.73;10.17;;;17.40;53.50;;;;;;5072657;28;20453;-60
2021/03/26 09:14:13;;;;;;;13.23;9.60;;;17.40;53.40;;;;;;5068278;28;20494;-60
2021/03/26 09:16:42;;;;;;;13.90;10.73;;;17.50;52.80;;;;;;5072274;28;20534;-60
2021/03/26 09:19:12;;;;;;;16.30;11.53;;;17.70;52.10;;;;;;5077351;28;20442;-60
2021/03/26 09:21:45;;;;;;;15.60;11.60;;;17.80;51.90;;;;;;5074540;28;20494;-61
2021/03/26 09:24:22;;;;;;;18.57;12.83;;;17.80;51.70;;;;;;5076813;28;20425;-60
2021/03/26 09:27:09;;;;;;;16.57;12.07;;;17.80;51.50;;;;;;5076085;28;20486;-60
2021/03/26 09:29:40;;;;;;;17.73;12.30;;;17.90;51.30;;;;;;5076625;28;20426;-61
2021/03/26 09:32:12;;;;;;;22.37;10.57;;;18.00;51.20;;;;;;5076555;28;20429;-60
2021/03/26 09:34:40;;;;;;;14.70;10.00;;;18.40;52.70;;;;;;5076097;28;20425;-60
2021/03/26 09:37:12;;;;;;;16.47;11.30;;;18.50;52.20;;;;;;5078524;28;20786;-61
2021/03/26 09:39:40;;;;;;;19.30;11.43;;;18.60;51.80;;;;;;5074565;28;20437;-60
2021/03/26 09:42:37;;;;;;;17.20;12.50;;;18.60;51.40;;;;;;5076643;28;20434;-61
2021/03/26 09:45:10;;;;;;;14.80;11.53;;;18.70;51.20;;;;;;5039344;28;20439;-61
2021/03/26 09:47:40;;;;;;;20.87;13.50;;;18.80;50.90;;;;;;5076079;28;20488;-61
2021/03/26 09:50:25;;;;;;;18.90;13.10;;;18.80;50.40;;;;;;5074537;28;20446;-60
2021/03/26 09:52:51;;;;;;;18.20;12.30;;;19.10;49.90;;;;;;5075097;28;20430;-60
2021/03/26 09:55:21;;;;;;;21.43;13.60;;;19.20;49.90;;;;;;5068288;28;20434;-60
2021/03/26 09:57:50;;;;;;;20.47;12.27;;;19.30;49.80;;;;;;5074130;28;20465;-60
2021/03/26 10:00:43;;;;;;;18.97;13.27;;;19.30;49.50;;;;;;5076404;28;20480;-61
2021/03/26 10:03:14;;;;;;;19.40;13.13;;;19.30;49.50;;;;;;5072362;28;20484;-61
2021/03/26 10:05:47;;;;;;;20.03;12.33;;;19.40;49.10;;;;;;5074550;28;20446;-61
2021/03/26 10:08:38;;;;;;;16.13;11.53;;;19.30;49.20;;;;;;5075030;28;20457;-61
2021/03/26 10:11:07;;;;;;;18.40;12.30;;;19.40;49.30;;;;;;5066763;28;20509;-61
2021/03/26 10:13:40;;;;;;;17.17;11.53;;;19.40;49.30;;;;;;5077432;28;20433;-60
2021/03/26 10:16:07;;;;;;;14.60;11.50;;;19.40;49.10;;;;;;5075530;28;20456;-60
2021/03/26 10:18:37;;;;;;;17.93;11.90;;;19.50;49.20;;;;;;5074345;28;20465;-60
2021/03/26 10:21:09;;;;;;;15.73;11.50;;;19.60;48.90;;;;;;5076139;28;20496;-60
2021/03/26 10:23:38;;;;;;;18.70;11.90;;;19.70;48.80;;;;;;5075337;28;20488;-60
2021/03/26 10:26:11;;;;;;;17.17;11.40;;;19.60;48.70;;;;;;5075128;28;20429;-61
2021/03/26 10:29:14;;;;;;;15.40;8.93;;;19.60;48.60;;;;;;5075411;28;20435;-60
2021/03/26 10:31:42;;;;;;;14.70;10.50;;;19.50;48.80;;;;;;5075382;28;20448;-60
2021/03/26 10:34:10;;;;;;;15.17;9.70;;;19.50;49.40;;;;;;5075139;28;20404;-60
2021/03/26 10:36:43;;;;;;;14.47;8.50;;;19.60;48.70;;;;;;5073159;28;20440;-59
2021/03/26 10:39:11;;;;;;;12.43;9.50;;;19.70;48.50;;;;;;5075434;28;20456;-59
2021/03/26 10:41:53;;;;;;;14.30;9.10;;;19.80;48.40;;;;;;5075319;28;20430;-60
2021/03/26 10:44:26;;;;;;;9.63;8.40;;;19.90;48.00;;;;;;5073815;28;20465;-59
2021/03/26 10:46:56;;;;;;;13.00;8.17;;;20.10;47.80;;;;;;5075585;28;20448;-59
2021/03/26 10:49:24;;;;;;;9.20;8.17;;;20.10;47.40;;;;;;5076803;28;20441;-59
2021/03/26 10:51:51;;;;;;;13.63;8.87;;;20.20;47.10;;;;;;5075127;28;20437;-59
2021/03/26 10:54:22;;;;;;;15.63;8.40;;;20.30;47.10;;;;;;5074461;28;20450;-60
2021/03/26 10:57:01;;;;;;;10.70;7.40;;;20.60;46.70;;;;;;5075595;28;20439;-60
2021/03/26 10:59:35;;;;;;;11.60;7.33;;;20.90;46.10;;;;;;5070202;28;20528;-57
2021/03/26 11:02:26;;;;;;;10.40;7.10;;;21.20;45.80;;;;;;5072233;28;20428;-58
2021/03/26 11:04:58;;;;;;;8.90;6.67;;;21.30;45.20;;;;;;5073422;28;20440;-57
2021/03/26 11:07:27;;;;;;;7.10;5.73;;;21.90;44.70;;;;;;5070917;28;20493;-57
2021/03/26 11:09:55;;;;;;;9.17;6.57;;;22.30;44.10;;;;;;5070113;28;20492;-58
2021/03/26 11:12:27;;;;;;;10.07;7.17;;;23.00;43.10;;;;;;5072224;28;20401;-58
2021/03/26 11:14:58;;;;;;;6.33;5.43;;;23.40;42.60;;;;;;5073677;28;20418;-59
2021/03/26 11:17:38;;;;;;;9.37;5.57;;;23.90;42.00;;;;;;5072690;28;20436;-59
2021/03/26 11:20:29;;;;;;;11.80;5.93;;;24.20;41.50;;;;;;5072537;28;20459;-58
2021/03/26 11:23:02;;;;;;;9.63;5.67;;;24.80;40.60;;;;;;5073982;28;20397;-58
2021/03/26 11:25:32;;;;;;;6.57;4.83;;;25.60;39.50;;;;;;5072505;28;20508;-58
2021/03/26 11:28:00;;;;;;;6.70;5.10;;;26.60;38.30;;;;;;5074401;28;20488;-59
2021/03/26 11:30:37;;;;;;;5.30;4.83;;;29.40;34.80;;;;;;5074690;28;20430;-61
2021/03/26 11:33:13;;;;;;;7.83;4.47;;;31.10;32.00;;;;;;5073212;28;20528;-61
2021/03/26 11:35:40;;;;;;;4.23;3.87;;;32.40;30.20;;;;;;5063018;28;20454;-61
2021/03/26 11:38:10;;;;;;;4.40;4.03;;;29.80;32.50;;;;;;5074675;28;20501;-61
2021/03/26 11:40:39;;;;;;;4.77;4.37;;;30.40;32.40;;;;;;5074732;28;20488;-61
2021/03/26 11:43:09;;;;;;;4.20;3.47;;;30.60;32.60;;;;;;5072289;28;20461;-61
2021/03/26 11:45:38;;;;;;;4.30;3.90;;;28.90;33.10;;;;;;5073745;28;20465;-61
2021/03/26 11:48:09;;;;;;;3.87;3.43;;;29.30;33.50;;;;;;5074009;28;20453;-63
2021/03/26 11:50:37;;;;;;;5.20;3.50;;;30.60;31.70;;;;;;5075067;28;20449;-63
2021/03/26 11:53:27;;;;;;;4.60;3.10;;;29.40;33.90;;;;;;5071979;28;20728;-64
2021/03/26 11:56:10;;;;;;;5.73;3.00;;;31.40;30.30;;;;;;5072612;28;20422;-63
2021/03/26 11:58:40;;;;;;;3.17;2.97;;;32.90;29.90;;;;;;5075837;28;20562;-62
2021/03/26 12:01:08;;;;;;;3.33;3.03;;;31.90;29.30;;;;;;5072275;28;20457;-62
2021/03/26 12:03:41;;;;;;;2.33;2.23;;;34.70;27.90;;;;;;5074198;28;20524;-60
2021/03/26 12:06:19;;;;;;;2.20;2.00;;;36.20;26.00;;;;;;5071444;28;20461;-61
2021/03/26 12:09:00;;;;;;;2.10;2.00;;;35.60;25.20;;;;;;5074362;28;20421;-61
2021/03/26 12:11:31;;;;;;;1.70;1.70;;;37.40;24.90;;;;;;5064381;28;20469;-61
2021/03/26 12:14:02;;;;;;;2.60;2.50;;;39.20;23.20;;;;;;5065238;28;20530;-59
2021/03/26 12:16:30;;;;;;;2.40;2.30;;;35.20;25.90;;;;;;5068749;28;20516;-61
2021/03/26 12:18:58;;;;;;;2.30;2.20;;;36.30;25.70;;;;;;5073339;28;20484;-61
2021/03/26 12:21:48;;;;;;;3.27;2.80;;;36.50;23.90;;;;;;5073875;28;20434;-61
2021/03/26 12:24:21;;;;;;;3.10;2.90;;;32.30;28.10;;;;;;5072535;28;20529;-60
2021/03/26 12:26:56;;;;;;;4.10;3.50;;;31.50;29.40;;;;;;5072888;28;20483;-61
2021/03/26 12:29:29;;;;;;;3.40;3.20;;;29.10;32.00;;;;;;5073578;28;20510;-60
2021/03/26 12:32:00;;;;;;;3.27;3.07;;;30.90;29.70;;;;;;5062876;28;20457;-61
2021/03/26 12:34:51;;;;;;;3.00;2.80;;;31.70;30.10;;;;;;5073890;28;20491;-60
2021/03/26 12:37:21;;;;;;;2.60;2.50;;;31.60;30.00;;;;;;5072635;28;20481;-60
2021/03/26 12:39:49;;;;;;;2.30;2.20;;;34.50;25.90;;;;;;5073472;28;20513;-60
2021/03/26 12:42:17;;;;;;;2.97;2.77;;;37.20;23.80;;;;;;5073417;28;20438;-59
2021/03/26 12:44:46;;;;;;;3.00;2.60;;;35.40;25.10;;;;;;5073675;28;20444;-59
2021/03/26 12:47:23;;;;;;;2.63;2.53;;;33.70;25.90;;;;;;5073282;28;20448;-59
2021/03/26 12:50:02;;;;;;;2.80;2.60;;;32.20;28.10;;;;;;5071763;28;20464;-62
2021/03/26 12:52:35;;;;;;;2.90;2.50;;;31.30;29.40;;;;;;5073751;28;20422;-62
2021/03/26 12:55:13;;;;;;;2.30;2.20;;;33.50;26.40;;;;;;5073024;28;20432;-62
2021/03/26 12:57:44;;;;;;;2.10;1.97;;;34.50;26.00;;;;;;5073195;28;20560;-60
2021/03/26 13:00:16;;;;;;;2.30;2.20;;;36.00;24.30;;;;;;5073653;28;20457;-60
2021/03/26 13:02:46;;;;;;;2.20;2.10;;;35.90;23.40;;;;;;5072048;28;20425;-60
2021/03/26 13:05:17;;;;;;;3.03;2.73;;;33.50;25.80;;;;;;5068144;28;20458;-60
2021/03/26 13:07:45;;;;;;;2.97;2.77;;;30.80;29.00;;;;;;5073273;28;20473;-61